createdAt,value
2018-07-06T00:02:19.974Z,17.50
2018-07-06T00:05:34.437Z,17.50
2018-07-06T00:08:48.961Z,17.50
2018-07-06T00:12:03.762Z,17.60
2018-07-06T00:15:18.259Z,17.50
2018-07-06T00:18:32.820Z,17.40
2018-07-06T00:21:47.550Z,17.40
2018-07-06T00:28:10.754Z,17.20
2018-07-06T00:31:25.285Z,17.20
2018-07-06T00:34:39.797Z,17.10
2018-07-06T00:37:54.301Z,17.10
2018-07-06T00:41:08.746Z,16.90
2018-07-06T00:44:23.242Z,16.90
2018-07-06T00:47:37.925Z,16.80
2018-07-06T00:50:52.433Z,16.80
2018-07-06T00:54:06.957Z,16.70
2018-07-06T00:57:21.510Z,16.60
2018-07-06T01:00:36.776Z,16.60
2018-07-06T01:03:51.299Z,16.50
2018-07-06T01:07:05.882Z,16.50
2018-07-06T01:10:20.354Z,16.40
2018-07-06T01:13:34.832Z,16.50
2018-07-06T01:16:50.824Z,16.50
2018-07-06T01:20:05.585Z,16.40
2018-07-06T01:23:20.310Z,16.40
2018-07-06T01:26:34.809Z,16.30
2018-07-06T01:29:49.269Z,16.20
2018-07-06T01:33:03.867Z,16.20
2018-07-06T01:36:18.561Z,16.20
2018-07-06T01:42:42.327Z,16.00
2018-07-06T01:45:56.963Z,15.90
2018-07-06T01:49:11.597Z,15.90
2018-07-06T01:52:26.293Z,15.90
2018-07-06T01:55:40.922Z,15.90
2018-07-06T01:58:55.710Z,15.80
2018-07-06T02:02:10.377Z,15.70
2018-07-06T02:05:25.132Z,15.60
2018-07-06T02:08:39.705Z,15.60
2018-07-06T02:11:54.368Z,15.60
2018-07-06T02:15:09.026Z,15.50
2018-07-06T02:18:23.677Z,15.40
2018-07-06T02:21:38.050Z,15.30
2018-07-06T02:24:52.679Z,15.20
2018-07-06T02:28:07.185Z,15.20
2018-07-06T02:31:21.673Z,15.10
2018-07-06T02:34:36.361Z,15.10
2018-07-06T02:37:50.965Z,15.10
2018-07-06T02:41:05.552Z,15.10
2018-07-06T02:44:20.113Z,15.00
2018-07-06T02:47:34.674Z,15.10
2018-07-06T02:57:06.552Z,15.10
2018-07-06T03:00:21.039Z,15.20
2018-07-06T03:06:44.502Z,15.10
2018-07-06T03:09:58.917Z,15.20
2018-07-06T03:13:13.529Z,15.30
2018-07-06T03:16:28.209Z,15.30
2018-07-06T03:22:51.599Z,15.50
2018-07-06T03:29:14.869Z,15.60
2018-07-06T03:32:29.534Z,15.50
2018-07-06T03:35:44.341Z,15.50
2018-07-06T03:38:59.001Z,15.60
2018-07-06T03:42:13.668Z,15.60
2018-07-06T03:45:28.145Z,15.60
2018-07-06T03:48:42.704Z,15.70
2018-07-06T03:51:57.145Z,15.80
2018-07-06T03:55:11.854Z,15.80
2018-07-06T03:58:26.586Z,15.70
2018-07-06T04:01:41.149Z,15.70
2018-07-06T04:04:55.824Z,15.70
2018-07-06T04:08:10.389Z,15.70
2018-07-06T04:11:24.953Z,15.70
2018-07-06T04:14:39.413Z,15.70
2018-07-06T04:17:53.873Z,15.90
2018-07-06T04:21:08.357Z,15.90
2018-07-06T04:27:31.589Z,16.00
2018-07-06T04:30:46.298Z,16.10
2018-07-06T04:40:18.274Z,16.30
2018-07-06T04:43:32.890Z,16.40
2018-07-06T04:46:47.589Z,16.40
2018-07-06T04:50:02.198Z,16.40
2018-07-06T04:56:25.774Z,16.20
2018-07-06T04:59:40.301Z,16.20
2018-07-06T05:02:54.886Z,16.10
2018-07-06T05:06:09.641Z,16.10
2018-07-06T05:09:24.341Z,16.10
2018-07-06T05:12:39.029Z,16.10
2018-07-06T05:15:53.471Z,16.10
2018-07-06T05:19:07.826Z,16.10
2018-07-06T05:22:22.423Z,16.20
2018-07-06T05:25:36.965Z,16.10
2018-07-06T05:28:55.405Z,16.10
2018-07-06T05:32:10.159Z,16.20
2018-07-06T05:35:24.720Z,16.10
2018-07-06T05:41:47.971Z,16.10
2018-07-06T05:45:02.586Z,16.10
2018-07-06T05:48:17.054Z,16.20
2018-07-06T05:51:31.815Z,16.10
2018-07-06T05:54:46.449Z,16.20
2018-07-06T05:58:01.158Z,16.20
2018-07-06T06:01:15.708Z,16.20
2018-07-06T06:04:30.255Z,16.20
2018-07-06T06:07:32.425Z,16.10
2018-07-06T06:10:47.005Z,16.10
2018-07-06T06:13:50.865Z,16.10
2018-07-06T06:19:57.181Z,16.30
2018-07-06T06:23:00.265Z,16.30
2018-07-06T06:26:03.343Z,16.30
2018-07-06T06:29:06.444Z,16.30
2018-07-06T06:32:09.800Z,16.20
2018-07-06T06:35:12.865Z,16.30
2018-07-06T06:38:15.972Z,16.30
2018-07-06T06:41:19.477Z,16.50
2018-07-06T06:44:22.556Z,16.60
2018-07-06T06:47:25.650Z,16.60
2018-07-06T06:50:28.733Z,16.60
2018-07-06T06:53:31.813Z,16.70
2018-07-06T06:56:34.904Z,16.70
2018-07-06T06:59:37.988Z,16.70
2018-07-06T07:02:41.238Z,16.80
2018-07-06T07:05:44.534Z,16.80
2018-07-06T07:08:47.754Z,16.70
2018-07-06T07:11:51.010Z,16.70
2018-07-06T07:14:54.227Z,16.70
2018-07-06T07:17:57.422Z,16.70
2018-07-06T07:21:00.609Z,16.70
2018-07-06T07:24:03.693Z,16.80
2018-07-06T07:27:06.793Z,16.90
2018-07-06T07:30:09.911Z,17.00
2018-07-06T07:33:12.952Z,17.20
2018-07-06T07:36:16.010Z,17.30
2018-07-06T07:39:19.100Z,17.40
2018-07-06T07:42:22.184Z,17.40
2018-07-06T07:45:25.252Z,17.30
2018-07-06T07:52:10.009Z,17.30
2018-07-06T07:55:13.097Z,17.30
2018-07-06T07:58:16.187Z,17.30
2018-07-06T08:01:19.546Z,17.30
2018-07-06T08:04:22.788Z,17.40
2018-07-06T08:07:25.880Z,17.50
2018-07-06T08:10:28.941Z,17.50
2018-07-06T08:13:32.022Z,17.50
2018-07-06T08:16:35.086Z,17.60
2018-07-06T08:19:38.205Z,17.50
2018-07-06T08:22:41.297Z,17.40
2018-07-06T08:25:44.383Z,17.40
2018-07-06T08:28:47.458Z,17.40
2018-07-06T08:31:50.513Z,17.50
2018-07-06T08:35:04.989Z,17.50
2018-07-06T08:41:10.917Z,17.70
2018-07-06T08:44:13.989Z,17.70
2018-07-06T08:47:17.055Z,17.70
2018-07-06T08:50:20.168Z,17.80
2018-07-06T08:53:23.205Z,17.70
2018-07-06T08:56:26.269Z,17.70
2018-07-06T08:59:29.389Z,17.60
2018-07-06T09:02:32.474Z,17.50
2018-07-06T09:05:35.573Z,17.50
2018-07-06T09:08:38.650Z,17.50
2018-07-06T09:11:41.713Z,17.50
2018-07-06T09:14:44.796Z,17.50
2018-07-06T09:17:47.902Z,17.50
2018-07-06T09:20:50.993Z,17.40
2018-07-06T09:23:54.090Z,17.40
2018-07-06T09:26:57.154Z,17.40
2018-07-06T09:30:00.265Z,17.40
2018-07-06T09:33:03.499Z,17.40
2018-07-06T09:36:06.453Z,17.40
2018-07-06T09:39:10.902Z,17.40
2018-07-06T09:42:14.406Z,17.60
2018-07-06T09:45:17.474Z,17.90
2018-07-06T09:48:20.581Z,18.30
2018-07-06T09:51:23.785Z,18.70
2018-07-06T09:54:26.877Z,18.70
2018-07-06T09:57:29.961Z,18.70
2018-07-06T10:00:38.352Z,18.80
2018-07-06T10:03:41.439Z,19.20
2018-07-06T10:06:44.507Z,19.70
2018-07-06T10:09:47.599Z,19.90
2018-07-06T10:12:50.654Z,19.60
2018-07-06T10:15:53.735Z,19.50
2018-07-06T10:18:56.885Z,19.10
2018-07-06T10:22:00.034Z,19.10
2018-07-06T10:25:03.066Z,19.10
2018-07-06T10:29:16.255Z,19.10
2018-07-06T10:32:21.572Z,19.10
2018-07-06T10:35:24.653Z,19.40
2018-07-06T10:38:27.715Z,19.60
2018-07-06T10:41:30.802Z,19.90
2018-07-06T10:44:33.885Z,20.10
2018-07-06T10:47:36.940Z,20.10
2018-07-06T10:50:40.024Z,19.90
2018-07-06T10:53:43.106Z,19.80
2018-07-06T10:56:46.181Z,19.80
2018-07-06T10:59:49.276Z,20.00
2018-07-06T11:02:52.357Z,20.50
2018-07-06T11:05:55.438Z,20.60
2018-07-06T11:08:58.526Z,20.60
2018-07-06T11:12:01.649Z,20.60
2018-07-06T11:15:04.745Z,20.70
2018-07-06T11:18:07.855Z,20.80
2018-07-06T11:21:10.945Z,20.80
2018-07-06T11:24:14.017Z,20.50
2018-07-06T11:27:17.084Z,20.40
2018-07-06T11:30:20.177Z,20.60
2018-07-06T11:33:23.267Z,20.90
2018-07-06T11:36:26.380Z,21.50
2018-07-06T11:39:29.459Z,21.80
2018-07-06T11:42:32.513Z,22.20
2018-07-06T11:45:35.597Z,22.40
2018-07-06T11:48:38.757Z,22.50
2018-07-06T11:51:41.847Z,22.40
2018-07-06T11:54:44.985Z,22.20
2018-07-06T11:57:48.241Z,21.90
2018-07-06T12:00:51.418Z,21.60
2018-07-06T12:03:54.594Z,21.50
2018-07-06T12:06:57.865Z,21.70
2018-07-06T12:10:01.070Z,22.00
2018-07-06T12:13:04.270Z,22.10
2018-07-06T12:16:07.475Z,22.20
2018-07-06T12:19:10.652Z,22.20
2018-07-06T12:22:13.868Z,22.10
2018-07-06T12:25:17.036Z,21.90
2018-07-06T12:28:20.493Z,22.20
2018-07-06T12:31:23.745Z,22.30
2018-07-06T12:34:26.940Z,22.40
2018-07-06T12:37:30.182Z,22.30
2018-07-06T12:40:33.402Z,22.00
2018-07-06T12:46:39.794Z,21.90
2018-07-06T12:52:46.010Z,22.40
2018-07-06T12:55:49.202Z,22.50
2018-07-06T12:58:53.803Z,22.60
2018-07-06T13:01:57.575Z,22.50
2018-07-06T13:05:01.636Z,22.60
2018-07-06T13:08:05.625Z,22.80
2018-07-06T13:11:09.661Z,22.90
2018-07-06T13:14:13.798Z,23.20
2018-07-06T13:17:17.016Z,23.30
2018-07-06T13:20:20.309Z,23.40
2018-07-06T13:23:23.710Z,23.20
2018-07-06T13:26:26.930Z,23.20
2018-07-06T13:29:30.094Z,23.20
2018-07-06T13:32:33.277Z,23.30
2018-07-06T13:35:36.346Z,23.10
2018-07-06T13:38:39.432Z,23.00
2018-07-06T13:41:42.579Z,22.70
2018-07-06T13:44:45.573Z,22.30
2018-07-06T13:47:48.661Z,22.00
2018-07-06T13:50:51.709Z,22.00
2018-07-06T13:53:54.807Z,22.30
2018-07-06T13:56:57.858Z,22.80
2018-07-06T14:03:03.785Z,22.60
2018-07-06T14:06:06.848Z,22.50
2018-07-06T14:09:10.413Z,22.40
2018-07-06T14:12:13.478Z,22.30
2018-07-06T14:15:16.549Z,22.30
2018-07-06T14:18:19.610Z,22.20
2018-07-06T14:21:22.690Z,22.30
2018-07-06T14:24:25.956Z,22.30
2018-07-06T14:27:28.997Z,22.30
2018-07-06T14:30:32.077Z,22.10
2018-07-06T14:36:38.033Z,22.20
2018-07-06T14:39:41.117Z,22.20
2018-07-06T14:42:44.186Z,22.30
2018-07-06T14:45:47.315Z,22.30
2018-07-06T14:48:50.389Z,22.20
2018-07-06T14:51:53.465Z,22.00
2018-07-06T14:54:56.534Z,21.90
2018-07-06T14:57:59.640Z,22.00
2018-07-06T15:01:02.706Z,22.10
2018-07-06T15:04:05.906Z,22.10
2018-07-06T15:07:08.974Z,22.20
2018-07-06T15:10:12.131Z,22.20
2018-07-06T15:13:15.261Z,22.20
2018-07-06T15:16:18.319Z,22.20
2018-07-06T15:19:21.702Z,22.20
2018-07-06T15:22:24.760Z,22.20
2018-07-06T15:25:27.838Z,22.10
2018-07-06T15:28:30.909Z,22.20
2018-07-06T15:34:36.832Z,22.40
2018-07-06T15:37:39.893Z,22.40
2018-07-06T15:40:42.978Z,22.50
2018-07-06T15:43:46.043Z,22.70
2018-07-06T15:46:49.329Z,22.80
2018-07-06T15:49:52.409Z,22.80
2018-07-06T15:52:55.453Z,22.80
2018-07-06T15:55:58.537Z,22.80
2018-07-06T15:59:01.577Z,22.80
2018-07-06T16:02:04.728Z,22.70
2018-07-06T16:05:07.822Z,22.70
2018-07-06T16:08:10.910Z,22.70
2018-07-06T16:11:13.962Z,22.70
2018-07-06T16:14:17.035Z,22.60
2018-07-06T16:17:20.126Z,22.50
2018-07-06T16:20:23.214Z,22.50
2018-07-06T16:23:26.249Z,22.40
2018-07-06T16:29:32.273Z,22.40
2018-07-06T16:32:35.352Z,22.40
2018-07-06T16:35:38.445Z,22.40
2018-07-06T16:38:41.513Z,22.40
2018-07-06T16:41:44.609Z,22.40
2018-07-06T16:44:47.676Z,22.30
2018-07-06T16:50:53.618Z,22.30
2018-07-06T16:53:56.715Z,22.30
2018-07-06T16:56:59.794Z,22.20
2018-07-06T17:00:02.873Z,22.20
2018-07-06T17:03:05.932Z,22.20
2018-07-06T17:09:11.873Z,22.10
2018-07-06T17:12:14.957Z,22.10
2018-07-06T17:15:18.001Z,22.00
2018-07-06T17:18:21.252Z,22.00
2018-07-06T17:21:24.335Z,22.00
2018-07-06T17:24:27.441Z,21.90
2018-07-06T17:27:30.529Z,21.90
2018-07-06T17:30:33.585Z,21.90
2018-07-06T17:33:36.707Z,21.70
2018-07-06T17:36:39.703Z,21.70
2018-07-06T17:39:43.011Z,21.70
2018-07-06T17:42:46.098Z,21.60
2018-07-06T17:45:49.230Z,21.60
2018-07-06T17:49:06.375Z,21.60
2018-07-06T17:52:09.458Z,21.50
2018-07-06T17:55:12.555Z,21.50
2018-07-06T17:58:15.617Z,21.40
2018-07-06T18:01:18.710Z,21.40
2018-07-06T18:04:21.927Z,21.30
2018-07-06T18:07:25.014Z,21.30
2018-07-06T18:10:28.538Z,21.20
2018-07-06T18:13:31.609Z,21.20
2018-07-06T18:16:34.798Z,21.10
2018-07-06T18:19:37.897Z,21.00
2018-07-06T18:22:40.977Z,21.00
2018-07-06T18:25:44.051Z,20.90
2018-07-06T18:28:47.146Z,20.90
2018-07-06T18:31:50.405Z,20.80
2018-07-06T18:34:53.457Z,20.80
2018-07-06T18:37:56.553Z,20.70
2018-07-06T18:40:59.621Z,20.60
2018-07-06T18:44:02.717Z,20.60
2018-07-06T18:47:05.907Z,20.50
2018-07-06T18:50:08.953Z,20.50
2018-07-06T18:53:12.021Z,20.40
2018-07-06T18:56:15.073Z,20.30
2018-07-06T18:59:18.133Z,20.30
2018-07-06T19:02:21.201Z,20.20
2018-07-06T19:05:24.238Z,20.10
2018-07-06T19:08:27.318Z,20.00
2018-07-06T19:14:33.334Z,19.80
2018-07-06T19:17:36.357Z,19.80
2018-07-06T19:20:39.429Z,19.70
2018-07-06T19:23:42.486Z,19.60
2018-07-06T19:26:45.549Z,19.50
2018-07-06T19:29:48.640Z,19.30
2018-07-06T19:32:51.713Z,19.30
2018-07-06T19:35:54.802Z,19.20
2018-07-06T19:38:57.887Z,19.10
2018-07-06T19:42:01.034Z,19.00
2018-07-06T19:45:04.213Z,19.00
2018-07-06T19:48:07.398Z,18.90
2018-07-06T19:51:10.571Z,18.80
2018-07-06T19:54:13.718Z,18.70
2018-07-06T19:57:16.918Z,18.70
2018-07-06T20:00:20.176Z,18.60
2018-07-06T20:03:23.370Z,18.50
2018-07-06T20:06:26.591Z,18.40
2018-07-06T20:09:29.813Z,18.40
2018-07-06T20:12:32.993Z,18.30
2018-07-06T20:15:36.242Z,18.30
2018-07-06T20:18:39.398Z,18.20
2018-07-06T20:21:42.606Z,18.10
2018-07-06T20:24:45.894Z,18.00
2018-07-06T20:27:49.101Z,18.00
2018-07-06T20:30:52.282Z,17.90
2018-07-06T20:33:55.377Z,17.90
2018-07-06T20:36:58.462Z,17.90
2018-07-06T20:40:01.543Z,17.90
2018-07-06T20:43:10.405Z,17.90
2018-07-06T20:49:16.389Z,17.70
2018-07-06T20:52:19.461Z,17.70
2018-07-06T20:55:28.341Z,17.70
2018-07-06T20:58:31.437Z,17.70
2018-07-06T21:01:35.169Z,17.60
2018-07-06T21:04:38.269Z,17.50
2018-07-06T21:07:41.350Z,17.50
2018-07-06T21:10:44.441Z,17.40
2018-07-06T21:13:47.513Z,17.40
2018-07-06T21:16:50.553Z,17.40
2018-07-06T21:19:53.626Z,17.30
2018-07-06T21:22:56.694Z,17.20
2018-07-06T21:25:59.756Z,17.20
2018-07-06T21:29:15.390Z,17.10
2018-07-06T21:32:18.465Z,17.00
2018-07-06T21:35:21.560Z,17.00
2018-07-06T21:38:24.652Z,16.90
2018-07-06T21:41:27.769Z,16.80
2018-07-06T21:44:30.841Z,16.80
2018-07-06T21:47:33.933Z,16.70
2018-07-06T21:50:36.986Z,16.60
2018-07-06T21:53:40.078Z,16.60
2018-07-06T21:56:43.318Z,16.50
2018-07-06T21:59:46.411Z,16.50
2018-07-06T22:02:49.482Z,16.40
2018-07-06T22:05:52.597Z,16.40
2018-07-06T22:08:55.705Z,16.30
2018-07-06T22:11:58.757Z,16.30
2018-07-06T22:15:01.846Z,16.30
2018-07-06T22:18:05.005Z,16.30
2018-07-06T22:21:08.089Z,16.20
2018-07-06T22:24:11.158Z,16.10
2018-07-06T22:27:14.265Z,16.10
2018-07-06T22:33:20.185Z,16.00
2018-07-06T22:36:23.255Z,16.00
2018-07-06T22:39:26.334Z,16.00
2018-07-06T22:42:29.410Z,15.90
2018-07-06T22:45:32.461Z,15.90
2018-07-06T22:48:35.521Z,15.80
2018-07-06T22:51:38.750Z,15.70
2018-07-06T22:54:41.828Z,15.70
2018-07-06T22:57:44.901Z,15.70
2018-07-06T23:00:47.975Z,15.60
2018-07-06T23:03:51.068Z,15.60
2018-07-06T23:06:54.125Z,15.50
2018-07-06T23:09:57.192Z,15.50
2018-07-06T23:13:00.261Z,15.40
2018-07-06T23:16:03.349Z,15.30
2018-07-06T23:19:06.419Z,15.30
2018-07-06T23:25:12.457Z,15.10
2018-07-06T23:28:15.651Z,15.10
2018-07-06T23:31:18.725Z,15.10
2018-07-06T23:34:21.787Z,15.00
2018-07-06T23:37:24.845Z,14.90
2018-07-06T23:43:30.786Z,14.80
2018-07-06T23:46:33.870Z,14.80
2018-07-06T23:49:36.961Z,14.80
2018-07-06T23:52:40.385Z,14.70
2018-07-06T23:55:43.458Z,14.70
2018-07-06T23:58:46.532Z,14.60
